createdAt,value
2018-09-09T07:35:21.033Z,16.30
2018-09-09T07:37:49.191Z,16.30
2018-09-09T07:40:17.309Z,16.40
2018-09-09T07:42:45.479Z,16.50
2018-09-09T07:45:13.639Z,16.50
2018-09-09T07:47:41.855Z,16.60
2018-09-09T07:50:10.076Z,16.60
2018-09-09T07:52:38.664Z,16.70
2018-09-09T07:55:06.791Z,16.80
2018-09-09T07:57:34.924Z,16.80
2018-09-09T08:00:03.095Z,16.90
2018-09-09T08:02:31.412Z,17.00
2018-09-09T08:04:59.552Z,17.20
2018-09-09T08:07:27.725Z,17.30
2018-09-09T08:09:55.869Z,17.40
2018-09-09T08:12:23.981Z,17.40
2018-09-09T08:14:52.126Z,17.60
2018-09-09T08:17:20.248Z,17.80
2018-09-09T08:19:48.392Z,18.00
2018-09-09T08:22:16.525Z,18.10
2018-09-09T08:24:44.626Z,18.20
2018-09-09T08:27:12.775Z,18.30
2018-09-09T08:29:41.042Z,18.40
2018-09-09T08:32:09.168Z,18.40
2018-09-09T08:34:37.294Z,18.50
2018-09-09T08:37:05.404Z,18.60
2018-09-09T08:39:33.546Z,18.70
2018-09-09T08:42:01.710Z,18.70
2018-09-09T08:44:29.887Z,18.90
2018-09-09T08:46:58.021Z,18.80
2018-09-09T08:49:26.127Z,19.00
2018-09-09T08:51:54.303Z,19.10
2018-09-09T08:54:22.432Z,19.00
2018-09-09T08:56:50.552Z,19.00
2018-09-09T08:59:18.675Z,18.90
2018-09-09T09:01:46.883Z,18.90
2018-09-09T09:04:14.993Z,18.90
2018-09-09T09:06:43.156Z,18.90
2018-09-09T09:09:11.702Z,19.00
2018-09-09T09:11:39.857Z,19.00
2018-09-09T09:14:08.015Z,19.10
2018-09-09T09:16:36.209Z,19.20
2018-09-09T09:19:04.421Z,19.30
2018-09-09T09:21:32.590Z,19.40
2018-09-09T09:24:00.696Z,19.50
2018-09-09T09:26:28.807Z,19.50
2018-09-09T09:28:56.963Z,19.60
2018-09-09T09:31:25.101Z,19.60
2018-09-09T09:33:53.212Z,19.80
2018-09-09T09:36:21.344Z,19.80
2018-09-09T09:38:49.491Z,19.80
2018-09-09T09:41:17.637Z,19.80
2018-09-09T09:43:45.808Z,19.80
2018-09-09T09:46:13.931Z,19.90
2018-09-09T09:48:42.056Z,19.90
2018-09-09T09:51:10.217Z,19.90
2018-09-09T09:53:38.401Z,20.00
2018-09-09T09:56:06.471Z,20.10
2018-09-09T09:58:34.838Z,20.20
2018-09-09T10:01:02.967Z,20.20
2018-09-09T10:03:31.139Z,20.20
2018-09-09T10:05:59.243Z,20.30
2018-09-09T10:08:27.352Z,20.30
2018-09-09T10:10:55.500Z,20.30
2018-09-09T10:13:23.652Z,20.40
2018-09-09T10:15:51.756Z,20.50
2018-09-09T10:18:19.876Z,20.60
2018-09-09T10:20:48.024Z,20.70
2018-09-09T10:23:16.201Z,20.80
2018-09-09T10:25:44.335Z,20.90
2018-09-09T10:28:12.476Z,21.00
2018-09-09T10:30:40.590Z,21.10
2018-09-09T10:33:08.737Z,21.30
2018-09-09T10:35:36.868Z,21.30
2018-09-09T10:38:04.977Z,21.40
2018-09-09T10:40:33.112Z,21.50
2018-09-09T10:43:01.299Z,21.60
2018-09-09T10:45:29.425Z,21.60
2018-09-09T10:47:57.577Z,21.60
2018-09-09T10:50:25.773Z,21.70
2018-09-09T10:52:53.993Z,21.90
2018-09-09T10:55:22.150Z,21.90
2018-09-09T10:57:50.320Z,22.00
2018-09-09T11:00:18.439Z,22.10
2018-09-09T11:02:46.600Z,22.10
2018-09-09T11:05:14.748Z,22.10
2018-09-09T11:07:42.976Z,22.10
2018-09-09T11:10:11.133Z,22.20
2018-09-09T11:12:39.394Z,22.20
2018-09-09T11:15:07.437Z,22.40
2018-09-09T11:17:35.543Z,22.50
2018-09-09T11:20:03.679Z,22.60
2018-09-09T11:22:31.854Z,22.60
2018-09-09T11:25:00.046Z,22.60
2018-09-09T11:27:28.181Z,22.70
2018-09-09T11:29:56.323Z,22.80
2018-09-09T11:32:24.483Z,22.90
2018-09-09T11:34:52.612Z,23.00
2018-09-09T11:37:20.812Z,23.00
2018-09-09T11:39:48.928Z,23.00
2018-09-09T11:42:17.192Z,23.00
2018-09-09T11:44:45.302Z,23.10
2018-09-09T11:47:13.454Z,23.20
2018-09-09T11:49:41.615Z,23.20
2018-09-09T11:52:09.747Z,23.30
2018-09-09T11:54:37.964Z,23.40
2018-09-09T11:57:06.163Z,23.50
2018-09-09T11:59:34.374Z,23.60
2018-09-09T12:02:02.590Z,23.60
2018-09-09T12:04:30.706Z,23.60
2018-09-09T12:06:58.821Z,23.70
2018-09-09T12:09:26.944Z,23.70
2018-09-09T12:11:55.068Z,23.70
2018-09-09T12:14:23.200Z,23.70
2018-09-09T12:16:51.344Z,23.60
2018-09-09T12:19:19.465Z,23.50
2018-09-09T12:21:47.584Z,23.60
2018-09-09T12:24:15.708Z,23.60
2018-09-09T12:26:43.848Z,23.60
2018-09-09T12:29:11.981Z,23.60
2018-09-09T12:31:40.131Z,23.60
2018-09-09T12:34:08.251Z,23.70
2018-09-09T12:36:36.388Z,23.60
2018-09-09T12:39:06.140Z,23.60
2018-09-09T12:41:34.392Z,23.60
2018-09-09T12:44:07.977Z,23.60
2018-09-09T12:46:41.483Z,23.70
2018-09-09T12:49:09.694Z,23.70
2018-09-09T12:51:37.883Z,23.70
2018-09-09T12:54:06.022Z,23.70
2018-09-09T12:56:34.231Z,23.50
2018-09-09T12:59:02.520Z,23.50
2018-09-09T13:01:30.678Z,23.60
2018-09-09T13:03:58.972Z,23.60
2018-09-09T13:06:27.163Z,23.60
2018-09-09T13:08:55.286Z,23.50
2018-09-09T13:11:23.414Z,23.50
2018-09-09T13:13:51.520Z,23.40
2018-09-09T13:16:19.647Z,23.30
2018-09-09T13:18:47.796Z,23.30
2018-09-09T13:21:15.904Z,23.30
2018-09-09T13:23:44.066Z,23.30
2018-09-09T13:26:12.188Z,23.20
2018-09-09T13:28:40.348Z,23.30
2018-09-09T13:31:08.480Z,23.30
2018-09-09T13:33:36.590Z,23.30
2018-09-09T13:36:04.794Z,23.20
2018-09-09T13:38:39.314Z,23.20
2018-09-09T13:41:07.456Z,23.20
2018-09-09T13:43:35.563Z,23.30
2018-09-09T13:46:03.724Z,23.30
2018-09-09T13:48:31.910Z,23.30
2018-09-09T13:51:00.300Z,23.30
2018-09-09T13:53:28.467Z,23.30
2018-09-09T13:55:56.596Z,23.20
2018-09-09T13:58:24.726Z,23.10
2018-09-09T14:00:52.900Z,23.10
2018-09-09T14:03:21.020Z,23.00
2018-09-09T14:05:49.252Z,23.00
2018-09-09T14:08:17.355Z,23.10
2018-09-09T14:10:45.465Z,23.10
2018-09-09T14:13:13.585Z,23.20
2018-09-09T14:15:41.707Z,23.20
2018-09-09T14:18:09.843Z,23.10
2018-09-09T14:20:37.939Z,23.10
2018-09-09T14:23:06.076Z,23.10
2018-09-09T14:25:34.197Z,23.10
2018-09-09T14:28:02.406Z,23.00
2018-09-09T14:30:30.596Z,23.00
2018-09-09T14:32:58.704Z,23.10
2018-09-09T14:35:26.901Z,23.00
2018-09-09T14:37:55.053Z,23.10
2018-09-09T14:40:23.187Z,23.10
2018-09-09T14:42:51.333Z,23.20
2018-09-09T14:45:19.452Z,23.10
2018-09-09T14:47:47.559Z,23.20
2018-09-09T14:50:15.665Z,23.20
2018-09-09T14:52:43.871Z,23.20
2018-09-09T14:55:12.007Z,23.30
2018-09-09T14:57:40.115Z,23.30
2018-09-09T15:00:08.295Z,23.30
2018-09-09T15:02:36.702Z,23.30
2018-09-09T15:05:04.890Z,23.30
2018-09-09T15:07:33.250Z,23.40
2018-09-09T15:10:01.456Z,23.40
2018-09-09T15:12:29.671Z,23.40
2018-09-09T15:14:58.126Z,23.40
2018-09-09T15:17:26.308Z,23.50
2018-09-09T15:19:54.792Z,23.50
2018-09-09T15:22:22.965Z,23.50
2018-09-09T15:24:51.040Z,23.50
2018-09-09T15:27:19.243Z,23.40
2018-09-09T15:29:47.364Z,23.40
2018-09-09T15:32:15.846Z,23.30
2018-09-09T15:34:44.461Z,23.20
2018-09-09T15:37:12.986Z,23.20
2018-09-09T15:39:44.738Z,23.10
2018-09-09T15:42:13.156Z,23.20
2018-09-09T15:44:41.325Z,23.10
2018-09-09T15:47:09.470Z,23.10
2018-09-09T15:49:38.632Z,23.10
2018-09-09T15:52:07.684Z,23.00
2018-09-09T15:54:35.769Z,23.00
2018-09-09T15:57:03.927Z,23.00
2018-09-09T15:59:32.748Z,23.00
2018-09-09T16:02:00.970Z,23.00
2018-09-09T16:04:29.176Z,22.90
2018-09-09T16:06:57.414Z,22.90
2018-09-09T16:09:25.658Z,22.80
2018-09-09T16:11:53.818Z,22.80
2018-09-09T16:14:21.905Z,22.70
2018-09-09T16:16:50.151Z,22.80
2018-09-09T16:19:18.303Z,22.70
2018-09-09T16:21:46.500Z,22.60
2018-09-09T16:24:14.688Z,22.70
2018-09-09T16:26:42.859Z,22.60
2018-09-09T16:29:11.057Z,22.50
2018-09-09T16:31:39.169Z,22.50
2018-09-09T16:34:07.325Z,22.40
2018-09-09T16:36:35.569Z,22.40
2018-09-09T16:39:04.895Z,22.30
2018-09-09T16:41:33.207Z,22.30
2018-09-09T16:44:01.546Z,22.30
2018-09-09T16:46:31.733Z,22.30
2018-09-09T16:48:59.927Z,22.30
2018-09-09T16:51:28.088Z,22.20
2018-09-09T16:53:56.369Z,22.20
2018-09-09T16:56:24.560Z,22.10
2018-09-09T16:58:52.731Z,22.10
2018-09-09T17:01:21.098Z,22.00
2018-09-09T17:03:49.190Z,21.90
2018-09-09T17:06:17.688Z,21.90
2018-09-09T17:08:46.101Z,21.80
2018-09-09T17:11:14.271Z,21.70
2018-09-09T17:13:42.404Z,21.70
2018-09-09T17:16:17.699Z,21.60
2018-09-09T17:18:45.871Z,21.50
2018-09-09T17:21:14.267Z,21.40
2018-09-09T17:23:42.879Z,21.40
2018-09-09T17:26:11.279Z,21.30
2018-09-09T17:28:39.482Z,21.20
2018-09-09T17:31:07.804Z,21.10
2018-09-09T17:33:35.931Z,21.00
2018-09-09T17:36:04.073Z,20.90
2018-09-09T17:38:32.427Z,20.80
2018-09-09T17:41:00.666Z,20.70
2018-09-09T17:43:28.809Z,20.70
2018-09-09T17:45:56.921Z,20.60
2018-09-09T17:48:25.078Z,20.50
2018-09-09T17:50:53.315Z,20.40
2018-09-09T17:53:21.436Z,20.30
2018-09-09T17:55:49.567Z,20.30
2018-09-09T17:58:17.695Z,20.20
2018-09-09T18:00:45.834Z,20.10
2018-09-09T18:03:13.952Z,20.10
2018-09-09T18:05:42.082Z,20.00
2018-09-09T18:08:10.208Z,19.90
2018-09-09T18:10:38.365Z,19.90
2018-09-09T18:13:06.490Z,19.80
2018-09-09T18:15:34.682Z,19.70
2018-09-09T18:18:02.811Z,19.60
2018-09-09T18:20:30.997Z,19.60
2018-09-09T18:22:59.092Z,19.50
2018-09-09T18:25:27.227Z,19.50
2018-09-09T18:27:55.362Z,19.50
2018-09-09T18:30:23.492Z,19.40
2018-09-09T18:32:51.669Z,19.30
2018-09-09T18:35:19.826Z,19.30
2018-09-09T18:37:47.960Z,19.20
2018-09-09T18:40:16.091Z,19.20
2018-09-09T18:42:44.245Z,19.10
2018-09-09T18:45:12.408Z,19.10
2018-09-09T18:47:40.558Z,19.10
2018-09-09T18:50:08.687Z,19.00
2018-09-09T18:52:36.812Z,18.90
2018-09-09T18:55:05.044Z,18.90
2018-09-09T18:57:33.152Z,18.90
2018-09-09T19:00:01.377Z,18.90
2018-09-09T19:02:29.622Z,18.90
2018-09-09T19:04:57.761Z,18.80
2018-09-09T19:07:25.901Z,18.80
2018-09-09T19:09:54.033Z,18.70
2018-09-09T19:12:26.355Z,18.70
2018-09-09T19:14:54.539Z,18.70
2018-09-09T19:17:22.690Z,18.60
2018-09-09T19:19:50.849Z,18.60
2018-09-09T19:22:19.028Z,18.50
2018-09-09T19:24:47.164Z,18.50
2018-09-09T19:27:15.304Z,18.50
2018-09-09T19:29:43.528Z,18.50
2018-09-09T19:32:11.656Z,18.50
2018-09-09T19:34:39.912Z,18.50
2018-09-09T19:37:08.048Z,18.40
2018-09-09T19:39:36.629Z,18.40
2018-09-09T19:43:09.907Z,18.30
2018-09-09T19:45:38.161Z,18.40
2018-09-09T19:48:08.525Z,18.30
2018-09-09T19:50:37.709Z,18.30
2018-09-09T19:53:05.855Z,18.30
2018-09-09T19:55:35.867Z,18.30
2018-09-09T19:58:04.052Z,18.20
2018-09-09T20:00:32.628Z,18.20
2018-09-09T20:03:00.792Z,18.10
2018-09-09T20:08:12.046Z,18.10
2018-09-09T20:10:42.071Z,18.10
2018-09-09T20:13:12.682Z,18.10
2018-09-09T20:15:42.205Z,18.20
2018-09-09T20:18:12.231Z,18.10
2018-09-09T20:20:40.394Z,18.10
2018-09-09T20:23:15.586Z,18.10
2018-09-09T20:25:43.771Z,18.00
2018-09-09T20:28:12.527Z,18.00
2018-09-09T20:30:41.293Z,17.90
2018-09-09T20:33:09.430Z,17.90
2018-09-09T20:35:37.553Z,17.90
2018-09-09T20:38:05.717Z,17.90
2018-09-09T20:40:33.853Z,17.90
2018-09-09T20:43:01.996Z,17.80
2018-09-09T20:45:30.133Z,17.90
2018-09-09T20:47:58.251Z,17.90
2018-09-09T20:50:26.383Z,17.90
2018-09-09T20:52:54.524Z,17.90
2018-09-09T20:55:22.665Z,17.80
2018-09-09T20:57:50.809Z,17.80
